Airfield :
LOGIN :

Register | Disclaimer

   EN    FR    IT 

 










Legend :    VFR   Marginal VFR   IFR   Intensive IFR   Very Intensive IFR
Visi :
Ceiling :
>= 8 km
>= 3000ft
5 to 8 km
1000 to 3000 ft
1500m to 5 km
500 to 1000 ft
800 to 1500m
200 to 500 ft
< 800m
< 200 ft
Symbols :   Thunderstorms  Fog  Heavy snow  Heavy precipitations  Wind > 20 kt
SIGMETs :     Misc.  Thunderstorms  Icing  Turbulence  Mountain Waves  Volcanic Ashes







- Airport Elevation : 336 ft
- IATA code : GCI
- Download approach charts


EGJB - Guernsey

CURRENT METAR :
  • 291250Z 25010KT 0200 R27/0275 VCSH FG OVC000 14/14 Q1013

EXPIRED METARs :
  • 291220Z 26009KT 0300 R27/0400 -SHRA FG BKN000 15/15 Q1013
  • 291150Z 25007KT 0800 R27/0600 -SHRA FG BKN000 BKN001 15/15 Q1013
  • 291120Z 25007KT 0150 R27/0225 -DZ FG BKN000 15/15 Q1013
  • 291050Z 24006KT 0400 R27/0400 -SHRA FG BKN000 14/14 Q1013
  • 291020Z 22004KT 190V260 0150 R27/0200 -SHRA FG BKN000 14/14 Q1013

TAF TAF EGJB
Valid from the 29 at 12:00 until the 29 at 21:00 UTC


291105Z 2912/2921 26010KT 0300 FG BKN000
TEMPO 2912/2915 3000 VCFG BKN002
PROB30
TEMPO 2912/2918 TSRA BKN050CB
PROB30
TEMPO 2915/2919 6000 VCFG FEW000
BECMG 2918/2920 9999 NSW SCT008
ATIS : +44 1481 238 957
No reported NOTAMs for that airfield.



MET'MAP, your aeronautical weather chart ! - Copyright ORBIFLY December 2007 - Disclaimer

ORBIFLY MET'MAP TEAM :

Programming & Development : Alexandra Zaïnal
Concept & Development : Baudouin d'Aumeries
Co-Development & Prog : Marc-Olivier Méhu
Technical & hardware support : Manuel Goepfert

Contact : metmap@orbifly.com




SOURCES & CREDITS :

   NOAA